createdAt,value
2022-08-19T00:01:56.276Z,21.62
2022-08-19T00:04:28.635Z,21.55
2022-08-19T00:06:55.548Z,21.47
2022-08-19T00:09:24.166Z,21.39
2022-08-19T00:11:52.897Z,21.32
2022-08-19T00:14:21.218Z,21.27
2022-08-19T00:16:49.087Z,21.22
2022-08-19T00:19:16.972Z,21.16
2022-08-19T00:21:43.880Z,21.13
2022-08-19T00:24:13.631Z,21.08
2022-08-19T00:26:42.727Z,21.04
2022-08-19T00:29:13.179Z,21.00
2022-08-19T00:31:42.021Z,20.97
2022-08-19T00:34:09.927Z,20.93
2022-08-19T00:36:37.736Z,20.90
2022-08-19T00:39:04.673Z,20.88
2022-08-19T00:41:31.823Z,20.84
2022-08-19T00:44:12.929Z,20.78
2022-08-19T00:46:43.809Z,20.74
2022-08-19T00:49:21.775Z,20.71
2022-08-19T00:51:53.757Z,20.66
2022-08-19T00:54:26.548Z,20.62
2022-08-19T00:57:00.253Z,20.58
2022-08-19T00:59:58.798Z,20.53
2022-08-19T01:02:17.304Z,20.47
2022-08-19T01:04:44.189Z,20.41
2022-08-19T01:07:14.986Z,20.37
2022-08-19T01:09:45.232Z,20.34
2022-08-19T01:12:12.101Z,20.30
2022-08-19T01:14:40.738Z,20.28
2022-08-19T01:17:12.172Z,20.25
2022-08-19T01:19:43.380Z,20.22
2022-08-19T01:22:33.875Z,20.18
2022-08-19T01:25:02.314Z,20.14
2022-08-19T01:27:44.018Z,20.10
2022-08-19T01:30:35.116Z,20.08
2022-08-19T01:33:05.584Z,20.06
2022-08-19T01:35:32.992Z,20.04
2022-08-19T01:38:08.096Z,20.02
2022-08-19T01:40:40.697Z,20.00
2022-08-19T01:43:08.240Z,19.97
2022-08-19T01:45:36.340Z,19.94
2022-08-19T01:48:04.108Z,19.93
2022-08-19T01:50:33.095Z,19.98
2022-08-19T01:53:07.640Z,20.03
2022-08-19T01:55:42.080Z,20.06
2022-08-19T01:58:28.443Z,20.09
2022-08-19T02:00:58.436Z,20.11
2022-08-19T02:03:25.387Z,20.12
2022-08-19T02:05:59.902Z,20.13
2022-08-19T02:08:28.753Z,20.14
2022-08-19T02:10:56.991Z,20.14
2022-08-19T02:13:27.436Z,20.14
2022-08-19T02:15:54.608Z,20.15
2022-08-19T02:18:21.451Z,20.16
2022-08-19T02:20:55.619Z,20.16
2022-08-19T02:23:22.416Z,20.16
2022-08-19T02:25:49.405Z,20.15
2022-08-19T02:28:18.774Z,20.15
2022-08-19T02:30:48.157Z,20.15
2022-08-19T02:33:15.937Z,20.15
2022-08-19T02:35:47.450Z,20.16
2022-08-19T02:38:27.038Z,20.18
2022-08-19T02:41:06.022Z,20.16
2022-08-19T02:43:37.308Z,20.13
2022-08-19T02:46:21.637Z,20.10
2022-08-19T02:48:54.545Z,20.10
2022-08-19T02:51:23.938Z,20.08
2022-08-19T02:53:51.429Z,20.08
2022-08-19T02:56:20.067Z,20.08
2022-08-19T02:58:48.800Z,20.09
2022-08-19T03:01:29.646Z,20.07
2022-08-19T03:03:59.652Z,20.08
2022-08-19T03:06:27.816Z,20.07
2022-08-19T03:08:55.857Z,20.05
2022-08-19T03:11:30.208Z,20.04
2022-08-19T03:13:58.915Z,20.00
2022-08-19T03:16:29.328Z,19.97
2022-08-19T03:19:02.042Z,19.96
2022-08-19T03:21:32.733Z,19.92
2022-08-19T03:24:07.401Z,19.87
2022-08-19T03:26:38.296Z,19.82
2022-08-19T03:29:06.593Z,19.78
2022-08-19T03:31:44.320Z,19.73
2022-08-19T03:34:18.490Z,19.69
2022-08-19T03:36:47.065Z,19.65
2022-08-19T03:39:15.041Z,19.63
2022-08-19T03:41:46.473Z,19.60
2022-08-19T03:44:20.968Z,19.58
2022-08-19T03:46:53.872Z,19.57
2022-08-19T03:49:28.277Z,19.56
2022-08-19T03:51:58.304Z,19.51
2022-08-19T03:54:27.001Z,19.50
2022-08-19T03:56:56.308Z,19.49
2022-08-19T03:59:30.271Z,19.49
2022-08-19T04:01:59.957Z,19.48
2022-08-19T04:04:29.366Z,19.49
2022-08-19T04:06:57.202Z,19.52
2022-08-19T04:09:24.494Z,19.55
2022-08-19T04:11:55.240Z,19.59
2022-08-19T04:14:29.795Z,19.61
2022-08-19T04:16:56.811Z,19.66
2022-08-19T04:19:23.800Z,19.73
2022-08-19T04:21:53.280Z,19.81
2022-08-19T04:24:22.324Z,19.88
2022-08-19T04:26:49.812Z,19.97
2022-08-19T04:29:25.300Z,20.04
2022-08-19T04:31:54.982Z,20.11
2022-08-19T04:34:25.583Z,20.21
2022-08-19T04:36:56.064Z,20.31
2022-08-19T04:39:48.410Z,20.40
2022-08-19T04:42:37.035Z,20.50
2022-08-19T04:45:12.386Z,20.60
2022-08-19T04:47:48.253Z,20.69
2022-08-19T04:50:27.975Z,20.78
2022-08-19T04:52:56.534Z,20.86
2022-08-19T04:55:26.031Z,20.96
2022-08-19T04:57:54.961Z,21.03
2022-08-19T05:00:22.900Z,21.11
2022-08-19T05:02:49.863Z,21.18
2022-08-19T05:05:17.863Z,21.27
2022-08-19T05:07:44.914Z,21.34
2022-08-19T05:10:12.060Z,21.42
2022-08-19T05:12:39.556Z,21.50
2022-08-19T05:15:08.856Z,21.59
2022-08-19T05:17:38.852Z,21.68
2022-08-19T05:20:27.041Z,21.77
2022-08-19T05:22:54.306Z,21.86
2022-08-19T05:25:21.988Z,21.94
2022-08-19T05:27:49.784Z,22.03
2022-08-19T05:30:17.363Z,22.15
2022-08-19T05:32:44.185Z,22.27
2022-08-19T05:35:12.061Z,22.38
2022-08-19T05:37:42.872Z,22.47
2022-08-19T05:40:11.539Z,22.57
2022-08-19T05:42:38.711Z,22.66
2022-08-19T05:45:07.063Z,22.75
2022-08-19T05:47:33.891Z,22.80
2022-08-19T05:50:02.520Z,22.84
2022-08-19T05:52:29.580Z,22.89
2022-08-19T05:54:57.494Z,22.91
2022-08-19T05:57:25.274Z,22.97
2022-08-19T05:59:58.529Z,23.05
2022-08-19T06:02:28.071Z,23.14
2022-08-19T06:04:55.064Z,23.20
2022-08-19T06:07:22.943Z,23.28
2022-08-19T06:10:00.436Z,23.33
2022-08-19T06:12:34.537Z,23.34
2022-08-19T06:15:12.984Z,23.39
2022-08-19T06:17:40.157Z,23.44
2022-08-19T06:20:12.251Z,23.48
2022-08-19T06:22:40.718Z,23.53
2022-08-19T06:25:09.544Z,23.57
2022-08-19T06:27:42.050Z,23.63
2022-08-19T06:30:15.748Z,23.68
2022-08-19T06:32:43.091Z,23.76
2022-08-19T06:35:10.130Z,23.85
2022-08-19T06:37:40.859Z,23.88
2022-08-19T06:40:12.910Z,23.92
2022-08-19T06:42:40.016Z,23.94
2022-08-19T06:45:15.114Z,23.94
2022-08-19T06:47:46.496Z,23.99
2022-08-19T06:50:15.333Z,24.01
2022-08-19T06:52:42.219Z,24.08
2022-08-19T06:55:09.549Z,24.12
2022-08-19T06:57:36.573Z,24.18
2022-08-19T07:00:12.987Z,24.25
2022-08-19T07:02:48.025Z,24.32
2022-08-19T07:05:23.074Z,24.44
2022-08-19T07:07:50.943Z,24.49
2022-08-19T07:10:19.496Z,24.52
2022-08-19T07:12:46.956Z,24.59
2022-08-19T07:15:13.869Z,24.65
2022-08-19T07:17:42.001Z,24.66
2022-08-19T07:20:10.462Z,24.76
2022-08-19T07:22:39.542Z,24.83
2022-08-19T07:25:09.635Z,24.85
2022-08-19T07:27:37.545Z,24.90
2022-08-19T07:30:11.595Z,24.95
2022-08-19T07:32:40.402Z,25.01
2022-08-19T07:35:09.338Z,25.08
2022-08-19T07:37:38.633Z,25.17
2022-08-19T07:40:08.294Z,25.25
2022-08-19T07:42:35.196Z,25.31
2022-08-19T07:45:02.298Z,25.41
2022-08-19T07:47:48.288Z,25.53
2022-08-19T07:50:19.714Z,25.64
2022-08-19T07:52:49.065Z,25.72
2022-08-19T07:55:41.655Z,25.80
2022-08-19T07:58:08.940Z,25.86
2022-08-19T08:00:36.899Z,25.91
2022-08-19T08:03:03.976Z,25.98
2022-08-19T08:05:49.996Z,26.06
2022-08-19T08:08:32.178Z,26.15
2022-08-19T08:11:00.867Z,26.25
2022-08-19T08:13:28.834Z,26.27
2022-08-19T08:15:57.636Z,26.31
2022-08-19T08:18:27.575Z,26.38
2022-08-19T08:20:56.604Z,26.42
2022-08-19T08:23:27.532Z,26.48
2022-08-19T08:25:58.464Z,26.57
2022-08-19T08:28:30.065Z,26.65
2022-08-19T08:30:58.456Z,26.70
2022-08-19T08:33:32.980Z,26.76
2022-08-19T08:36:16.167Z,26.84
2022-08-19T08:38:47.397Z,26.92
2022-08-19T08:41:31.069Z,26.99
2022-08-19T08:43:58.614Z,27.05
2022-08-19T08:46:46.113Z,27.10
2022-08-19T08:49:34.516Z,27.13
2022-08-19T08:52:10.334Z,27.18
2022-08-19T08:54:48.837Z,27.22
2022-08-19T08:57:53.907Z,27.24
2022-08-19T09:00:32.989Z,27.26
2022-08-19T09:03:04.004Z,27.31
2022-08-19T09:06:18.846Z,27.35
2022-08-19T09:09:04.504Z,27.43
2022-08-19T09:12:02.802Z,27.50
2022-08-19T09:14:50.813Z,27.50
2022-08-19T09:17:31.189Z,27.51
2022-08-19T09:20:11.728Z,27.53
2022-08-19T09:22:45.455Z,27.55
2022-08-19T09:25:24.606Z,27.62
2022-08-19T09:28:02.851Z,27.65
2022-08-19T09:30:37.709Z,27.68
2022-08-19T09:33:05.575Z,27.73
2022-08-19T09:35:49.646Z,27.79
2022-08-19T09:38:21.829Z,27.82
2022-08-19T09:40:49.967Z,27.86
2022-08-19T09:43:33.862Z,27.93
2022-08-19T09:46:06.688Z,28.01
2022-08-19T09:48:34.612Z,28.01
2022-08-19T09:51:16.556Z,28.02
2022-08-19T09:53:46.532Z,28.03
2022-08-19T09:56:14.197Z,28.12
2022-08-19T09:58:41.164Z,28.21
2022-08-19T10:01:09.057Z,28.32
2022-08-19T10:03:37.295Z,28.38
2022-08-19T10:06:05.756Z,28.39
2022-08-19T10:08:49.884Z,28.44
2022-08-19T10:11:27.765Z,28.48
2022-08-19T10:14:03.360Z,28.47
2022-08-19T10:16:30.530Z,28.49
2022-08-19T10:18:58.983Z,28.52
2022-08-19T10:21:32.016Z,28.58
2022-08-19T10:24:04.328Z,28.65
2022-08-19T10:26:37.405Z,28.69
2022-08-19T10:29:05.896Z,28.70
2022-08-19T10:32:00.115Z,28.72
2022-08-19T10:34:28.053Z,28.76
2022-08-19T10:37:01.295Z,28.83
2022-08-19T10:39:32.696Z,28.86
2022-08-19T10:42:13.449Z,28.87
2022-08-19T10:44:41.297Z,28.89
2022-08-19T10:47:17.901Z,28.91
2022-08-19T10:50:14.040Z,28.91
2022-08-19T10:52:48.912Z,28.93
2022-08-19T10:55:42.527Z,28.97
2022-08-19T10:58:16.166Z,29.02
2022-08-19T11:00:44.094Z,29.09
2022-08-19T11:03:11.589Z,29.14
2022-08-19T11:05:40.075Z,29.18
2022-08-19T11:08:22.228Z,29.21
2022-08-19T11:11:00.870Z,29.28
2022-08-19T11:13:36.134Z,29.33
2022-08-19T11:16:26.502Z,29.36
2022-08-19T11:18:58.712Z,29.37
2022-08-19T11:21:33.968Z,29.39
2022-08-19T11:24:07.024Z,29.40
2022-08-19T11:26:36.271Z,29.42
2022-08-19T11:29:04.722Z,29.47
2022-08-19T11:31:35.842Z,29.51
2022-08-19T11:34:07.345Z,29.53
2022-08-19T11:36:38.763Z,29.57
2022-08-19T11:39:08.164Z,29.61
2022-08-19T11:41:35.140Z,29.67
2022-08-19T11:44:04.810Z,29.68
2022-08-19T11:46:32.282Z,29.69
2022-08-19T11:49:01.032Z,29.68
2022-08-19T11:51:30.108Z,29.68
2022-08-19T11:53:59.377Z,29.70
2022-08-19T11:56:28.068Z,29.73
2022-08-19T11:58:57.220Z,29.78
2022-08-19T12:01:26.156Z,29.83
2022-08-19T12:03:56.283Z,29.90
2022-08-19T12:06:34.556Z,29.96
2022-08-19T12:09:06.435Z,30.00
2022-08-19T12:11:34.584Z,30.02
2022-08-19T12:14:01.729Z,30.05
2022-08-19T12:16:31.033Z,30.08
2022-08-19T12:19:04.229Z,30.09
2022-08-19T12:21:35.307Z,30.10
2022-08-19T12:24:05.492Z,30.12
2022-08-19T12:26:33.727Z,30.14
2022-08-19T12:29:23.334Z,30.15
2022-08-19T12:31:52.024Z,30.19
2022-08-19T12:34:20.460Z,30.23
2022-08-19T12:36:49.496Z,30.26
2022-08-19T12:39:16.402Z,30.29
2022-08-19T12:41:54.282Z,30.32
2022-08-19T12:44:29.495Z,30.36
2022-08-19T12:46:59.776Z,30.40
2022-08-19T12:49:54.290Z,30.45
2022-08-19T12:52:17.116Z,30.47
2022-08-19T12:54:54.612Z,30.47
2022-08-19T12:57:31.866Z,30.47
2022-08-19T13:00:21.432Z,30.45
2022-08-19T13:02:52.108Z,30.44
2022-08-19T13:05:23.341Z,30.44
2022-08-19T13:07:56.466Z,30.45
2022-08-19T13:10:28.140Z,30.46
2022-08-19T13:12:55.873Z,30.47
2022-08-19T13:15:24.474Z,30.48
2022-08-19T13:17:54.077Z,30.49
2022-08-19T13:20:22.482Z,30.54
2022-08-19T13:22:49.650Z,30.56
2022-08-19T13:25:17.912Z,30.57
2022-08-19T13:27:44.828Z,30.61
2022-08-19T13:30:33.567Z,30.63
2022-08-19T13:33:12.519Z,30.63
2022-08-19T13:35:50.616Z,30.61
2022-08-19T13:38:21.358Z,30.61
2022-08-19T13:40:52.242Z,30.64
2022-08-19T13:43:24.638Z,30.67
2022-08-19T13:45:56.430Z,30.69
2022-08-19T13:48:25.647Z,30.73
2022-08-19T13:50:52.513Z,30.77
2022-08-19T13:53:19.370Z,30.78
2022-08-19T13:55:46.888Z,30.79
2022-08-19T13:58:14.876Z,30.78
2022-08-19T14:00:45.802Z,30.77
2022-08-19T14:03:12.701Z,30.78
2022-08-19T14:05:40.054Z,30.80
2022-08-19T14:08:07.623Z,30.79
2022-08-19T14:10:34.482Z,30.77
2022-08-19T14:13:03.979Z,30.78
2022-08-19T14:15:31.915Z,30.80
2022-08-19T14:17:59.079Z,30.80
2022-08-19T14:20:26.952Z,30.81
2022-08-19T14:22:55.071Z,30.81
2022-08-19T14:25:27.202Z,30.80
2022-08-19T14:27:55.372Z,30.79
2022-08-19T14:30:31.944Z,30.79
2022-08-19T14:33:01.867Z,30.81
2022-08-19T14:35:30.688Z,30.83
2022-08-19T14:37:58.541Z,30.84
2022-08-19T14:40:29.798Z,30.84
2022-08-19T14:43:04.131Z,30.84
2022-08-19T14:45:36.698Z,30.83
2022-08-19T14:48:08.829Z,30.85
2022-08-19T14:50:45.900Z,30.84
2022-08-19T14:53:13.479Z,30.83
2022-08-19T14:55:45.749Z,30.81
2022-08-19T14:58:28.817Z,30.81
2022-08-19T15:01:00.060Z,30.81
2022-08-19T15:03:28.764Z,30.79
2022-08-19T15:05:57.735Z,30.79
2022-08-19T15:08:25.331Z,30.79
2022-08-19T15:10:53.447Z,30.80
2022-08-19T15:13:20.753Z,30.79
2022-08-19T15:15:48.676Z,30.77
2022-08-19T15:18:15.501Z,30.76
2022-08-19T15:20:43.824Z,30.73
2022-08-19T15:23:18.580Z,30.72
2022-08-19T15:25:46.036Z,30.69
2022-08-19T15:28:13.462Z,30.66
2022-08-19T15:30:40.828Z,30.63
2022-08-19T15:33:08.271Z,30.63
2022-08-19T15:35:35.324Z,30.62
2022-08-19T15:38:02.346Z,30.61
2022-08-19T15:40:29.329Z,30.60
2022-08-19T15:42:56.433Z,30.58
2022-08-19T15:45:32.416Z,30.56
2022-08-19T15:48:02.259Z,30.53
2022-08-19T15:50:33.381Z,30.51
2022-08-19T15:53:05.464Z,30.49
2022-08-19T15:55:36.352Z,30.47
2022-08-19T15:58:30.013Z,30.45
2022-08-19T16:01:24.360Z,30.41
2022-08-19T16:04:15.656Z,30.38
2022-08-19T16:06:56.098Z,30.34
2022-08-19T16:09:28.527Z,30.32
2022-08-19T16:12:04.519Z,30.28
2022-08-19T16:14:34.657Z,30.25
2022-08-19T16:17:01.892Z,30.22
2022-08-19T16:19:28.794Z,30.19
2022-08-19T16:21:56.545Z,30.16
2022-08-19T16:24:27.348Z,30.13
2022-08-19T16:26:55.524Z,30.09
2022-08-19T16:29:34.124Z,30.06
2022-08-19T16:32:10.250Z,30.02
2022-08-19T16:34:41.869Z,29.98
2022-08-19T16:37:10.024Z,29.93
2022-08-19T16:39:38.250Z,29.88
2022-08-19T16:42:07.620Z,29.83
2022-08-19T16:44:38.672Z,29.79
2022-08-19T16:47:05.836Z,29.74
2022-08-19T16:49:53.241Z,29.70
2022-08-19T16:52:20.551Z,29.66
2022-08-19T16:54:47.900Z,29.60
2022-08-19T16:57:16.264Z,29.55
2022-08-19T16:59:48.504Z,29.49
2022-08-19T17:02:20.581Z,29.43
2022-08-19T17:04:57.344Z,29.36
2022-08-19T17:07:33.089Z,29.28
2022-08-19T17:10:04.403Z,29.21
2022-08-19T17:12:32.218Z,29.16
2022-08-19T17:15:04.675Z,29.09
2022-08-19T17:17:31.603Z,29.03
2022-08-19T17:20:00.783Z,28.97
2022-08-19T17:22:27.844Z,28.90
2022-08-19T17:24:56.224Z,28.83
2022-08-19T17:27:31.517Z,28.77
2022-08-19T17:30:02.285Z,28.70
2022-08-19T17:32:34.362Z,28.64
2022-08-19T17:35:03.953Z,28.56
2022-08-19T17:37:31.352Z,28.51
2022-08-19T17:39:58.382Z,28.48
2022-08-19T17:42:25.908Z,28.43
2022-08-19T17:44:52.741Z,28.38
2022-08-19T17:47:20.534Z,28.32
2022-08-19T17:49:47.779Z,28.26
2022-08-19T17:52:14.596Z,28.21
2022-08-19T17:54:41.502Z,28.14
2022-08-19T17:57:09.028Z,28.06
2022-08-19T17:59:36.899Z,27.98
2022-08-19T18:02:07.033Z,27.91
2022-08-19T18:04:38.399Z,27.85
2022-08-19T18:07:05.847Z,27.79
2022-08-19T18:09:41.694Z,27.72
2022-08-19T18:12:13.251Z,27.66
2022-08-19T18:14:41.203Z,27.60
2022-08-19T18:17:11.776Z,27.55
2022-08-19T18:19:43.302Z,27.49
2022-08-19T18:22:19.860Z,27.42
2022-08-19T18:24:46.654Z,27.33
2022-08-19T18:27:14.093Z,27.28
2022-08-19T18:29:41.171Z,27.22
2022-08-19T18:32:14.546Z,27.15
2022-08-19T18:34:43.203Z,27.06
2022-08-19T18:37:11.616Z,26.99
2022-08-19T18:39:57.337Z,26.91
2022-08-19T18:42:43.645Z,26.80
2022-08-19T18:45:29.646Z,26.69
2022-08-19T18:48:26.987Z,26.59
2022-08-19T18:51:00.482Z,26.47
2022-08-19T18:53:31.639Z,26.36
2022-08-19T18:55:59.107Z,26.28
2022-08-19T18:58:32.571Z,26.18
2022-08-19T19:01:25.743Z,26.08
2022-08-19T19:03:54.733Z,25.99
2022-08-19T19:06:29.900Z,25.92
2022-08-19T19:08:57.568Z,25.87
2022-08-19T19:11:33.239Z,25.82
2022-08-19T19:14:03.058Z,25.78
2022-08-19T19:16:31.192Z,25.73
2022-08-19T19:18:58.705Z,25.66
2022-08-19T19:21:26.937Z,25.61
2022-08-19T19:23:55.464Z,25.58
2022-08-19T19:26:22.712Z,25.54
2022-08-19T19:28:50.858Z,25.51
2022-08-19T19:31:22.663Z,25.48
2022-08-19T19:33:49.819Z,25.44
2022-08-19T19:36:17.848Z,25.40
2022-08-19T19:38:48.676Z,25.37
2022-08-19T19:41:23.873Z,25.32
2022-08-19T19:44:30.145Z,25.29
2022-08-19T19:46:47.604Z,25.24
2022-08-19T19:49:14.585Z,25.18
2022-08-19T19:51:43.484Z,25.14
2022-08-19T19:54:13.149Z,25.11
2022-08-19T19:56:44.822Z,25.07
2022-08-19T19:59:12.058Z,25.03
2022-08-19T20:01:40.079Z,24.98
2022-08-19T20:04:16.259Z,24.95
2022-08-19T20:06:45.686Z,24.91
2022-08-19T20:09:19.295Z,24.87
2022-08-19T20:11:55.828Z,24.85
2022-08-19T20:14:32.848Z,24.82
2022-08-19T20:17:00.088Z,24.79
2022-08-19T20:19:33.613Z,24.76
2022-08-19T20:22:00.757Z,24.73
2022-08-19T20:24:34.675Z,24.70
2022-08-19T20:27:03.520Z,24.65
2022-08-19T20:29:39.468Z,24.61
2022-08-19T20:32:10.092Z,24.57
2022-08-19T20:34:38.571Z,24.53
2022-08-19T20:37:08.444Z,24.50
2022-08-19T20:39:35.317Z,24.47
2022-08-19T20:42:03.098Z,24.44
2022-08-19T20:44:30.042Z,24.40
2022-08-19T20:47:00.505Z,24.36
2022-08-19T20:49:30.011Z,24.32
2022-08-19T20:51:57.714Z,24.28
2022-08-19T20:54:25.420Z,24.24
2022-08-19T20:56:53.316Z,24.18
2022-08-19T20:59:21.372Z,24.14
2022-08-19T21:01:51.205Z,24.10
2022-08-19T21:04:20.614Z,24.05
2022-08-19T21:06:49.157Z,24.02
2022-08-19T21:09:16.052Z,23.98
2022-08-19T21:11:43.520Z,23.97
2022-08-19T21:14:10.575Z,23.93
2022-08-19T21:16:37.468Z,23.91
2022-08-19T21:19:04.421Z,23.88
2022-08-19T21:21:32.617Z,23.83
2022-08-19T21:23:59.479Z,23.78
2022-08-19T21:26:27.475Z,23.73
2022-08-19T21:28:54.268Z,23.68
2022-08-19T21:31:21.599Z,23.65
2022-08-19T21:33:48.431Z,23.64
2022-08-19T21:36:15.274Z,23.60
2022-08-19T21:38:42.323Z,23.55
2022-08-19T21:41:09.153Z,23.52
2022-08-19T21:43:37.365Z,23.48
2022-08-19T21:46:05.412Z,23.46
2022-08-19T21:48:32.412Z,23.43
2022-08-19T21:50:59.240Z,23.40
2022-08-19T21:53:31.671Z,23.37
2022-08-19T21:56:05.944Z,23.34
2022-08-19T21:58:33.572Z,23.31
2022-08-19T22:01:05.139Z,23.29
2022-08-19T22:03:36.714Z,23.27
2022-08-19T22:06:04.328Z,23.22
2022-08-19T22:08:31.589Z,23.20
2022-08-19T22:11:01.284Z,23.17
2022-08-19T22:13:35.925Z,23.11
2022-08-19T22:16:07.735Z,23.07
2022-08-19T22:18:34.800Z,23.03
2022-08-19T22:21:04.520Z,22.98
2022-08-19T22:23:33.257Z,22.93
2022-08-19T22:26:00.629Z,22.90
2022-08-19T22:28:28.002Z,22.85
2022-08-19T22:30:55.460Z,22.81
2022-08-19T22:33:25.218Z,22.78
2022-08-19T22:35:52.977Z,22.74
2022-08-19T22:38:19.824Z,22.71
2022-08-19T22:40:50.573Z,22.69
2022-08-19T22:43:25.721Z,22.67
2022-08-19T22:45:55.417Z,22.63
2022-08-19T22:48:26.546Z,22.58
2022-08-19T22:51:13.250Z,22.55
2022-08-19T22:53:45.980Z,22.50
2022-08-19T22:56:15.463Z,22.49
2022-08-19T22:58:43.459Z,22.46
2022-08-19T23:01:24.842Z,22.46
2022-08-19T23:03:59.244Z,22.45
2022-08-19T23:06:33.856Z,22.43
2022-08-19T23:09:06.092Z,22.37
2022-08-19T23:11:41.974Z,22.35
2022-08-19T23:14:11.948Z,22.32
2022-08-19T23:16:41.623Z,22.31
2022-08-19T23:19:09.564Z,22.29
2022-08-19T23:21:41.572Z,22.29
2022-08-19T23:24:10.451Z,22.27
2022-08-19T23:26:37.945Z,22.23
2022-08-19T23:29:24.283Z,22.21
2022-08-19T23:31:51.367Z,22.18
2022-08-19T23:34:18.239Z,22.14
2022-08-19T23:36:45.692Z,22.10
2022-08-19T23:39:12.533Z,22.06
2022-08-19T23:41:39.344Z,22.02
2022-08-19T23:44:06.196Z,22.01
2022-08-19T23:46:54.455Z,22.00
2022-08-19T23:49:24.498Z,21.98
2022-08-19T23:51:53.680Z,21.95
2022-08-19T23:54:21.065Z,21.93
2022-08-19T23:56:47.922Z,21.90
2022-08-19T23:59:15.373Z,21.89
